sensor_id;sensor_type;location;lat;lon;timestamp;P1;durP1;ratioP1;P2;durP2;ratioP2
63406;SDS011;49543;45.892;10.838;2023-11-21T06:20:58;16.35;;;9.93;;
63406;SDS011;49543;45.892;10.838;2023-11-21T06:23:26;13.88;;;9.90;;
63406;SDS011;49543;45.892;10.838;2023-11-21T06:25:59;13.40;;;9.85;;
63406;SDS011;49543;45.892;10.838;2023-11-21T06:28:25;12.75;;;9.48;;
63406;SDS011;49543;45.892;10.838;2023-11-21T06:30:50;14.45;;;10.45;;
63406;SDS011;49543;45.892;10.838;2023-11-21T06:33:16;12.68;;;10.02;;
63406;SDS011;49543;45.892;10.838;2023-11-21T06:35:41;12.93;;;9.90;;
63406;SDS011;49543;45.892;10.838;2023-11-21T06:38:07;12.18;;;9.20;;
63406;SDS011;49543;45.892;10.838;2023-11-21T06:40:34;12.10;;;9.25;;
63406;SDS011;49543;45.892;10.838;2023-11-21T06:43:00;11.18;;;8.43;;
63406;SDS011;49543;45.892;10.838;2023-11-21T06:45:26;13.10;;;8.85;;
63406;SDS011;49543;45.892;10.838;2023-11-21T06:47:51;11.05;;;8.90;;
63406;SDS011;49543;45.892;10.838;2023-11-21T06:50:17;15.20;;;10.10;;
63406;SDS011;49543;45.892;10.838;2023-11-21T06:52:42;14.23;;;9.75;;
63406;SDS011;49543;45.892;10.838;2023-11-21T06:55:08;15.23;;;9.73;;
63406;SDS011;49543;45.892;10.838;2023-11-21T06:57:35;13.70;;;9.52;;
63406;SDS011;49543;45.892;10.838;2023-11-21T07:00:00;13.93;;;9.32;;
63406;SDS011;49543;45.892;10.838;2023-11-21T07:02:26;13.38;;;9.57;;
63406;SDS011;49543;45.892;10.838;2023-11-21T07:04:53;13.45;;;9.45;;
63406;SDS011;49543;45.892;10.838;2023-11-21T07:07:18;12.52;;;8.68;;
63406;SDS011;49543;45.892;10.838;2023-11-21T07:09:44;14.18;;;9.70;;
63406;SDS011;49543;45.892;10.838;2023-11-21T07:12:10;12.32;;;9.00;;
63406;SDS011;49543;45.892;10.838;2023-11-21T07:14:36;11.88;;;9.50;;
63406;SDS011;49543;45.892;10.838;2023-11-21T11:31:36;6.07;;;5.10;;
63406;SDS011;49543;45.892;10.838;2023-11-21T11:37:02;6.35;;;4.70;;
63406;SDS011;49543;45.892;10.838;2023-11-21T11:39:35;5.88;;;4.63;;
63406;SDS011;49543;45.892;10.838;2023-11-21T11:42:03;6.28;;;4.82;;
63406;SDS011;49543;45.892;10.838;2023-11-21T11:47:17;4.65;;;3.90;;
63406;SDS011;49543;45.892;10.838;2023-11-21T11:52:45;4.20;;;3.80;;
63406;SDS011;49543;45.892;10.838;2023-11-21T11:57:42;4.70;;;3.95;;
63406;SDS011;49543;45.892;10.838;2023-11-21T12:00:12;4.10;;;3.70;;
63406;SDS011;49543;45.892;10.838;2023-11-21T12:03:01;6.05;;;4.25;;
63406;SDS011;49543;45.892;10.838;2023-11-21T12:05:28;7.13;;;4.70;;
63406;SDS011;49543;45.892;10.838;2023-11-21T12:08:07;6.55;;;4.70;;
63406;SDS011;49543;45.892;10.838;2023-11-21T12:10:36;5.57;;;4.13;;
63406;SDS011;49543;45.892;10.838;2023-11-21T12:13:06;5.97;;;4.88;;
63406;SDS011;49543;45.892;10.838;2023-11-21T12:15:33;6.25;;;5.15;;
63406;SDS011;49543;45.892;10.838;2023-11-21T12:18:00;6.32;;;5.03;;
63406;SDS011;49543;45.892;10.838;2023-11-21T12:20:26;6.22;;;4.68;;
63406;SDS011;49543;45.892;10.838;2023-11-21T12:22:56;6.30;;;5.45;;
63406;SDS011;49543;45.892;10.838;2023-11-21T12:25:28;5.40;;;4.63;;
63406;SDS011;49543;45.892;10.838;2023-11-21T12:27:57;8.40;;;5.40;;
63406;SDS011;49543;45.892;10.838;2023-11-21T12:30:24;6.18;;;5.25;;
63406;SDS011;49543;45.892;10.838;2023-11-21T12:32:53;6.82;;;5.03;;
63406;SDS011;49543;45.892;10.838;2023-11-21T12:35:27;7.82;;;5.45;;
63406;SDS011;49543;45.892;10.838;2023-11-21T12:37:56;5.47;;;4.32;;
63406;SDS011;49543;45.892;10.838;2023-11-21T12:40:22;6.57;;;4.60;;
63406;SDS011;49543;45.892;10.838;2023-11-21T12:42:49;5.00;;;4.47;;
63406;SDS011;49543;45.892;10.838;2023-11-21T12:47:48;4.60;;;3.80;;
63406;SDS011;49543;45.892;10.838;2023-11-21T12:50:18;4.78;;;4.30;;
63406;SDS011;49543;45.892;10.838;2023-11-21T12:52:48;6.15;;;4.65;;
63406;SDS011;49543;45.892;10.838;2023-11-21T12:55:18;6.25;;;4.68;;
63406;SDS011;49543;45.892;10.838;2023-11-21T12:57:51;3.25;;;2.95;;
63406;SDS011;49543;45.892;10.838;2023-11-21T13:00:19;3.88;;;2.95;;
63406;SDS011;49543;45.892;10.838;2023-11-21T13:02:55;5.10;;;4.20;;
63406;SDS011;49543;45.892;10.838;2023-11-21T13:05:28;4.57;;;3.83;;
63406;SDS011;49543;45.892;10.838;2023-11-21T13:08:00;4.38;;;3.70;;
63406;SDS011;49543;45.892;10.838;2023-11-21T13:10:28;4.80;;;3.10;;
63406;SDS011;49543;45.892;10.838;2023-11-21T13:12:56;4.35;;;3.28;;
63406;SDS011;49543;45.892;10.838;2023-11-21T13:15:25;4.90;;;3.75;;
63406;SDS011;49543;45.892;10.838;2023-11-21T13:17:53;3.95;;;3.60;;
63406;SDS011;49543;45.892;10.838;2023-11-21T13:20:21;4.45;;;3.95;;
63406;SDS011;49543;45.892;10.838;2023-11-21T13:22:50;5.13;;;3.50;;
63406;SDS011;49543;45.892;10.838;2023-11-21T13:25:22;4.10;;;3.70;;
63406;SDS011;49543;45.892;10.838;2023-11-21T13:27:48;5.13;;;3.53;;
63406;SDS011;49543;45.892;10.838;2023-11-21T13:30:14;4.40;;;4.00;;
63406;SDS011;49543;45.892;10.838;2023-11-21T13:32:51;5.13;;;4.25;;
63406;SDS011;49543;45.892;10.838;2023-11-21T13:35:18;5.15;;;3.60;;
63406;SDS011;49543;45.892;10.838;2023-11-21T13:37:55;4.75;;;3.90;;
63406;SDS011;49543;45.892;10.838;2023-11-21T13:40:25;5.65;;;4.20;;
63406;SDS011;49543;45.892;10.838;2023-11-21T13:42:55;5.72;;;4.32;;
63406;SDS011;49543;45.892;10.838;2023-11-21T13:45:24;4.85;;;4.10;;
63406;SDS011;49543;45.892;10.838;2023-11-21T13:47:52;4.45;;;4.05;;
63406;SDS011;49543;45.892;10.838;2023-11-21T13:50:23;4.88;;;4.38;;
63406;SDS011;49543;45.892;10.838;2023-11-21T13:52:56;4.90;;;3.92;;
63406;SDS011;49543;45.892;10.838;2023-11-21T13:56:02;4.45;;;4.05;;
63406;SDS011;49543;45.892;10.838;2023-11-21T13:59:17;5.75;;;4.00;;
63406;SDS011;49543;45.892;10.838;2023-11-21T14:01:52;5.75;;;4.43;;
63406;SDS011;49543;45.892;10.838;2023-11-21T14:04:33;5.70;;;4.05;;
63406;SDS011;49543;45.892;10.838;2023-11-21T14:07:26;6.95;;;5.32;;
63406;SDS011;49543;45.892;10.838;2023-11-21T14:10:10;11.27;;;8.23;;
63406;SDS011;49543;45.892;10.838;2023-11-21T14:12:46;5.75;;;3.97;;
63406;SDS011;49543;45.892;10.838;2023-11-21T14:15:12;5.75;;;3.70;;
63406;SDS011;49543;45.892;10.838;2023-11-21T14:17:44;4.38;;;3.85;;
63406;SDS011;49543;45.892;10.838;2023-11-21T14:20:10;6.65;;;4.88;;
63406;SDS011;49543;45.892;10.838;2023-11-21T14:22:41;9.18;;;5.18;;
63406;SDS011;49543;45.892;10.838;2023-11-21T14:25:07;4.43;;;3.95;;
63406;SDS011;49543;45.892;10.838;2023-11-21T14:27:33;6.57;;;3.75;;
63406;SDS011;49543;45.892;10.838;2023-11-21T14:29:58;5.93;;;3.40;;
63406;SDS011;49543;45.892;10.838;2023-11-21T14:32:24;5.00;;;3.88;;
63406;SDS011;49543;45.892;10.838;2023-11-21T14:34:51;4.43;;;3.85;;
63406;SDS011;49543;45.892;10.838;2023-11-21T14:37:17;6.32;;;3.97;;
63406;SDS011;49543;45.892;10.838;2023-11-21T14:39:42;6.93;;;4.15;;
63406;SDS011;49543;45.892;10.838;2023-11-21T14:42:12;4.80;;;3.92;;
63406;SDS011;49543;45.892;10.838;2023-11-21T14:44:40;4.00;;;3.60;;
63406;SDS011;49543;45.892;10.838;2023-11-21T14:47:06;5.65;;;3.33;;
63406;SDS011;49543;45.892;10.838;2023-11-21T14:49:40;6.10;;;3.42;;
63406;SDS011;49543;45.892;10.838;2023-11-21T14:52:17;5.45;;;3.70;;
63406;SDS011;49543;45.892;10.838;2023-11-21T14:55:05;4.00;;;3.42;;
63406;SDS011;49543;45.892;10.838;2023-11-21T14:57:51;6.85;;;3.70;;
63406;SDS011;49543;45.892;10.838;2023-11-21T15:00:20;5.63;;;3.97;;
63406;SDS011;49543;45.892;10.838;2023-11-21T15:03:03;4.28;;;3.10;;
63406;SDS011;49543;45.892;10.838;2023-11-21T15:05:30;9.27;;;6.43;;
63406;SDS011;49543;45.892;10.838;2023-11-21T15:07:56;15.15;;;9.93;;
63406;SDS011;49543;45.892;10.838;2023-11-21T15:10:33;19.17;;;11.20;;
63406;SDS011;49543;45.892;10.838;2023-11-21T15:13:25;6.88;;;4.75;;
63406;SDS011;49543;45.892;10.838;2023-11-21T15:15:53;6.30;;;4.30;;
63406;SDS011;49543;45.892;10.838;2023-11-21T15:18:21;7.95;;;5.57;;
63406;SDS011;49543;45.892;10.838;2023-11-21T15:20:47;7.60;;;4.50;;
63406;SDS011;49543;45.892;10.838;2023-11-21T15:23:13;4.47;;;4.07;;
63406;SDS011;49543;45.892;10.838;2023-11-21T15:25:38;4.75;;;3.72;;
63406;SDS011;49543;45.892;10.838;2023-11-21T15:28:04;5.43;;;4.05;;
63406;SDS011;49543;45.892;10.838;2023-11-21T15:30:30;4.43;;;3.85;;
63406;SDS011;49543;45.892;10.838;2023-11-21T15:32:57;4.82;;;4.00;;
63406;SDS011;49543;45.892;10.838;2023-11-21T15:35:23;4.72;;;4.00;;
63406;SDS011;49543;45.892;10.838;2023-11-21T15:37:48;5.20;;;4.70;;
63406;SDS011;49543;45.892;10.838;2023-11-21T15:40:14;8.07;;;4.72;;
63406;SDS011;49543;45.892;10.838;2023-11-21T15:42:41;5.53;;;4.95;;
63406;SDS011;49543;45.892;10.838;2023-11-21T15:45:07;5.20;;;4.70;;
63406;SDS011;49543;45.892;10.838;2023-11-21T15:47:36;4.45;;;4.05;;
63406;SDS011;49543;45.892;10.838;2023-11-21T15:50:01;5.63;;;4.95;;
63406;SDS011;49543;45.892;10.838;2023-11-21T15:52:29;16.38;;;9.43;;
63406;SDS011;49543;45.892;10.838;2023-11-21T15:54:55;21.33;;;12.43;;
63406;SDS011;49543;45.892;10.838;2023-11-21T15:57:21;38.67;;;19.88;;
63406;SDS011;49543;45.892;10.838;2023-11-21T15:59:47;21.42;;;10.48;;
63406;SDS011;49543;45.892;10.838;2023-11-21T16:02:13;15.48;;;7.15;;
63406;SDS011;49543;45.892;10.838;2023-11-21T16:04:40;16.13;;;9.43;;
63406;SDS011;49543;45.892;10.838;2023-11-21T16:07:07;13.38;;;8.88;;
63406;SDS011;49543;45.892;10.838;2023-11-21T16:09:33;12.88;;;7.28;;
63406;SDS011;49543;45.892;10.838;2023-11-21T16:12:00;11.30;;;7.80;;
63406;SDS011;49543;45.892;10.838;2023-11-21T16:17:04;11.05;;;5.82;;
63406;SDS011;49543;45.892;10.838;2023-11-21T16:19:32;9.30;;;5.47;;
63406;SDS011;49543;45.892;10.838;2023-11-21T16:21:58;6.97;;;4.90;;
63406;SDS011;49543;45.892;10.838;2023-11-21T16:24:23;8.65;;;4.60;;
63406;SDS011;49543;45.892;10.838;2023-11-21T16:26:51;7.68;;;5.45;;
63406;SDS011;49543;45.892;10.838;2023-11-21T16:29:17;6.47;;;4.90;;
63406;SDS011;49543;45.892;10.838;2023-11-21T16:31:42;5.60;;;4.40;;
63406;SDS011;49543;45.892;10.838;2023-11-21T16:34:18;4.93;;;4.35;;
63406;SDS011;49543;45.892;10.838;2023-11-21T16:36:44;8.80;;;5.15;;
63406;SDS011;49543;45.892;10.838;2023-11-21T16:39:11;8.32;;;4.97;;
63406;SDS011;49543;45.892;10.838;2023-11-21T16:41:40;11.82;;;5.20;;
63406;SDS011;49543;45.892;10.838;2023-11-21T16:44:17;5.03;;;4.03;;
63406;SDS011;49543;45.892;10.838;2023-11-21T16:46:44;4.40;;;3.72;;
63406;SDS011;49543;45.892;10.838;2023-11-21T16:49:22;4.28;;;3.72;;
63406;SDS011;49543;45.892;10.838;2023-11-21T16:51:48;3.95;;;3.58;;
63406;SDS011;49543;45.892;10.838;2023-11-21T17:42:43;26.10;;;13.90;;
63406;SDS011;49543;45.892;10.838;2023-11-21T17:45:10;17.20;;;10.82;;
63406;SDS011;49543;45.892;10.838;2023-11-21T17:47:37;10.52;;;7.75;;
63406;SDS011;49543;45.892;10.838;2023-11-21T17:50:02;12.55;;;8.32;;
63406;SDS011;49543;45.892;10.838;2023-11-21T17:52:28;9.15;;;4.97;;
63406;SDS011;49543;45.892;10.838;2023-11-21T17:54:54;7.80;;;6.45;;
63406;SDS011;49543;45.892;10.838;2023-11-21T17:57:19;7.20;;;5.22;;
63406;SDS011;49543;45.892;10.838;2023-11-21T17:59:45;8.20;;;5.00;;
63406;SDS011;49543;45.892;10.838;2023-11-21T18:02:12;16.15;;;8.07;;
63406;SDS011;49543;45.892;10.838;2023-11-21T18:04:37;15.43;;;7.93;;
63406;SDS011;49543;45.892;10.838;2023-11-21T18:07:03;18.40;;;10.55;;
63406;SDS011;49543;45.892;10.838;2023-11-21T18:09:32;13.13;;;8.48;;
63406;SDS011;49543;45.892;10.838;2023-11-21T18:11:59;13.27;;;7.85;;
63406;SDS011;49543;45.892;10.838;2023-11-21T18:14:27;11.10;;;8.43;;
63406;SDS011;49543;45.892;10.838;2023-11-21T18:16:52;14.73;;;8.18;;
63406;SDS011;49543;45.892;10.838;2023-11-21T18:19:18;5.43;;;4.70;;
63406;SDS011;49543;45.892;10.838;2023-11-21T18:21:44;7.10;;;6.03;;
63406;SDS011;49543;45.892;10.838;2023-11-21T18:24:10;10.57;;;6.65;;
63406;SDS011;49543;45.892;10.838;2023-11-21T18:26:36;10.60;;;8.35;;
63406;SDS011;49543;45.892;10.838;2023-11-21T18:29:02;20.23;;;18.15;;
63406;SDS011;49543;45.892;10.838;2023-11-21T18:31:28;17.52;;;13.05;;
63406;SDS011;49543;45.892;10.838;2023-11-21T18:33:53;10.30;;;7.32;;
63406;SDS011;49543;45.892;10.838;2023-11-21T18:36:19;10.43;;;7.80;;
63406;SDS011;49543;45.892;10.838;2023-11-21T18:38:48;7.63;;;6.40;;
63406;SDS011;49543;45.892;10.838;2023-11-21T18:41:20;13.20;;;7.68;;
63406;SDS011;49543;45.892;10.838;2023-11-21T18:43:47;12.73;;;7.18;;
63406;SDS011;49543;45.892;10.838;2023-11-21T18:46:13;13.63;;;7.13;;
63406;SDS011;49543;45.892;10.838;2023-11-21T18:48:38;13.88;;;8.23;;
63406;SDS011;49543;45.892;10.838;2023-11-21T18:51:05;11.02;;;7.50;;
63406;SDS011;49543;45.892;10.838;2023-11-21T18:53:33;8.88;;;6.45;;
63406;SDS011;49543;45.892;10.838;2023-11-21T18:56:00;17.50;;;10.88;;
63406;SDS011;49543;45.892;10.838;2023-11-21T18:58:25;19.58;;;13.73;;
63406;SDS011;49543;45.892;10.838;2023-11-21T19:00:52;17.10;;;12.95;;
63406;SDS011;49543;45.892;10.838;2023-11-21T19:03:17;16.00;;;11.00;;
63406;SDS011;49543;45.892;10.838;2023-11-21T19:05:44;12.77;;;9.40;;
63406;SDS011;49543;45.892;10.838;2023-11-21T19:08:09;13.32;;;9.30;;
63406;SDS011;49543;45.892;10.838;2023-11-21T19:10:35;12.55;;;8.75;;
63406;SDS011;49543;45.892;10.838;2023-11-21T19:13:02;12.98;;;8.73;;
63406;SDS011;49543;45.892;10.838;2023-11-21T19:15:29;12.90;;;9.38;;
63406;SDS011;49543;45.892;10.838;2023-11-21T19:17:57;13.57;;;8.77;;
63406;SDS011;49543;45.892;10.838;2023-11-21T19:20:26;12.55;;;8.65;;
63406;SDS011;49543;45.892;10.838;2023-11-21T19:22:51;12.48;;;8.38;;
63406;SDS011;49543;45.892;10.838;2023-11-21T19:25:24;35.92;;;23.95;;
63406;SDS011;49543;45.892;10.838;2023-11-21T19:27:50;20.95;;;13.57;;
63406;SDS011;49543;45.892;10.838;2023-11-21T19:30:16;7.97;;;5.55;;
63406;SDS011;49543;45.892;10.838;2023-11-21T19:32:42;10.63;;;6.97;;
63406;SDS011;49543;45.892;10.838;2023-11-21T19:35:08;10.38;;;8.38;;
63406;SDS011;49543;45.892;10.838;2023-11-21T19:37:35;8.65;;;6.75;;
63406;SDS011;49543;45.892;10.838;2023-11-21T19:40:00;10.75;;;6.97;;
63406;SDS011;49543;45.892;10.838;2023-11-21T19:42:26;9.40;;;6.90;;
63406;SDS011;49543;45.892;10.838;2023-11-21T19:44:51;9.15;;;6.20;;
63406;SDS011;49543;45.892;10.838;2023-11-21T19:47:17;16.00;;;10.07;;
63406;SDS011;49543;45.892;10.838;2023-11-21T19:49:42;14.60;;;10.35;;
63406;SDS011;49543;45.892;10.838;2023-11-21T19:52:08;13.95;;;9.57;;
63406;SDS011;49543;45.892;10.838;2023-11-21T19:54:34;11.05;;;7.95;;
63406;SDS011;49543;45.892;10.838;2023-11-21T19:57:00;7.65;;;6.68;;
63406;SDS011;49543;45.892;10.838;2023-11-21T19:59:29;8.50;;;6.60;;
63406;SDS011;49543;45.892;10.838;2023-11-21T20:01:55;60.47;;;23.58;;
63406;SDS011;49543;45.892;10.838;2023-11-21T20:04:21;29.23;;;13.80;;
63406;SDS011;49543;45.892;10.838;2023-11-21T20:06:46;26.67;;;13.70;;
63406;SDS011;49543;45.892;10.838;2023-11-21T20:09:14;51.42;;;24.55;;
63406;SDS011;49543;45.892;10.838;2023-11-21T20:11:40;103.32;;;42.83;;
63406;SDS011;49543;45.892;10.838;2023-11-21T20:14:06;57.40;;;28.23;;
63406;SDS011;49543;45.892;10.838;2023-11-21T20:16:32;26.80;;;15.32;;
63406;SDS011;49543;45.892;10.838;2023-11-21T20:18:57;24.30;;;13.05;;
63406;SDS011;49543;45.892;10.838;2023-11-21T20:21:23;38.15;;;19.10;;
63406;SDS011;49543;45.892;10.838;2023-11-21T20:23:48;31.77;;;16.40;;
63406;SDS011;49543;45.892;10.838;2023-11-21T20:26:24;25.60;;;15.48;;
63406;SDS011;49543;45.892;10.838;2023-11-21T20:28:51;18.38;;;11.55;;
63406;SDS011;49543;45.892;10.838;2023-11-21T20:31:20;19.08;;;11.52;;
63406;SDS011;49543;45.892;10.838;2023-11-21T20:33:46;18.90;;;12.23;;
63406;SDS011;49543;45.892;10.838;2023-11-21T20:36:13;16.88;;;10.52;;
63406;SDS011;49543;45.892;10.838;2023-11-21T20:38:38;14.27;;;8.77;;
63406;SDS011;49543;45.892;10.838;2023-11-21T20:41:04;11.73;;;8.32;;
63406;SDS011;49543;45.892;10.838;2023-11-21T20:43:31;10.40;;;7.38;;
63406;SDS011;49543;45.892;10.838;2023-11-21T20:45:57;24.90;;;16.67;;
63406;SDS011;49543;45.892;10.838;2023-11-21T20:48:22;21.67;;;14.20;;
63406;SDS011;49543;45.892;10.838;2023-11-21T20:50:51;11.40;;;8.75;;
63406;SDS011;49543;45.892;10.838;2023-11-21T20:53:16;11.98;;;9.25;;
63406;SDS011;49543;45.892;10.838;2023-11-21T20:55:42;13.80;;;9.52;;
63406;SDS011;49543;45.892;10.838;2023-11-21T20:58:10;13.07;;;9.15;;
63406;SDS011;49543;45.892;10.838;2023-11-21T21:00:35;19.02;;;13.10;;
63406;SDS011;49543;45.892;10.838;2023-11-21T21:03:01;15.98;;;11.05;;
63406;SDS011;49543;45.892;10.838;2023-11-21T21:05:27;14.07;;;9.07;;
63406;SDS011;49543;45.892;10.838;2023-11-21T21:07:53;12.07;;;8.52;;
63406;SDS011;49543;45.892;10.838;2023-11-21T21:12:48;13.30;;;8.93;;
63406;SDS011;49543;45.892;10.838;2023-11-21T21:15:15;11.85;;;9.30;;
63406;SDS011;49543;45.892;10.838;2023-11-21T21:17:41;12.48;;;9.75;;
63406;SDS011;49543;45.892;10.838;2023-11-21T21:20:06;10.80;;;8.20;;
63406;SDS011;49543;45.892;10.838;2023-11-21T21:22:33;10.63;;;7.25;;
63406;SDS011;49543;45.892;10.838;2023-11-21T21:24:58;12.57;;;8.43;;
63406;SDS011;49543;45.892;10.838;2023-11-21T21:27:24;12.20;;;9.05;;
63406;SDS011;49543;45.892;10.838;2023-11-21T21:29:51;11.98;;;7.53;;
63406;SDS011;49543;45.892;10.838;2023-11-21T21:32:17;10.45;;;7.40;;
63406;SDS011;49543;45.892;10.838;2023-11-21T21:34:42;14.55;;;8.35;;
63406;SDS011;49543;45.892;10.838;2023-11-21T21:37:07;11.05;;;7.82;;
63406;SDS011;49543;45.892;10.838;2023-11-21T21:39:33;10.25;;;7.05;;
63406;SDS011;49543;45.892;10.838;2023-11-21T21:41:58;10.93;;;7.80;;
63406;SDS011;49543;45.892;10.838;2023-11-21T21:44:24;14.25;;;8.98;;
63406;SDS011;49543;45.892;10.838;2023-11-21T21:46:49;15.02;;;10.15;;
63406;SDS011;49543;45.892;10.838;2023-11-21T21:49:15;12.82;;;8.52;;
63406;SDS011;49543;45.892;10.838;2023-11-21T21:51:40;8.20;;;6.53;;
63406;SDS011;49543;45.892;10.838;2023-11-21T21:54:06;8.27;;;6.65;;
63406;SDS011;49543;45.892;10.838;2023-11-21T21:56:32;8.30;;;7.07;;
63406;SDS011;49543;45.892;10.838;2023-11-21T21:58:58;9.43;;;7.45;;
63406;SDS011;49543;45.892;10.838;2023-11-21T22:01:23;12.57;;;7.18;;
63406;SDS011;49543;45.892;10.838;2023-11-21T22:03:50;9.63;;;7.00;;
63406;SDS011;49543;45.892;10.838;2023-11-21T22:06:17;8.50;;;6.03;;
63406;SDS011;49543;45.892;10.838;2023-11-21T22:08:43;7.28;;;5.78;;
63406;SDS011;49543;45.892;10.838;2023-11-21T22:11:08;8.95;;;6.45;;
63406;SDS011;49543;45.892;10.838;2023-11-21T22:13:33;9.45;;;5.90;;
63406;SDS011;49543;45.892;10.838;2023-11-21T22:15:59;10.13;;;7.60;;
63406;SDS011;49543;45.892;10.838;2023-11-21T22:18:25;10.70;;;6.75;;
63406;SDS011;49543;45.892;10.838;2023-11-21T22:20:50;9.57;;;7.57;;
63406;SDS011;49543;45.892;10.838;2023-11-21T22:23:16;10.02;;;7.30;;
63406;SDS011;49543;45.892;10.838;2023-11-21T22:25:41;12.80;;;7.97;;
63406;SDS011;49543;45.892;10.838;2023-11-21T22:28:07;13.00;;;7.47;;
63406;SDS011;49543;45.892;10.838;2023-11-21T22:30:33;8.02;;;6.65;;
63406;SDS011;49543;45.892;10.838;2023-11-21T22:32:58;9.45;;;6.95;;
63406;SDS011;49543;45.892;10.838;2023-11-21T22:35:24;9.85;;;7.30;;
63406;SDS011;49543;45.892;10.838;2023-11-21T22:37:51;9.57;;;7.35;;
63406;SDS011;49543;45.892;10.838;2023-11-21T22:40:17;9.77;;;7.15;;
63406;SDS011;49543;45.892;10.838;2023-11-21T22:42:44;8.90;;;6.38;;
63406;SDS011;49543;45.892;10.838;2023-11-21T22:45:09;8.75;;;6.93;;
63406;SDS011;49543;45.892;10.838;2023-11-21T22:47:35;7.85;;;6.22;;
63406;SDS011;49543;45.892;10.838;2023-11-21T22:50:01;7.65;;;6.70;;
63406;SDS011;49543;45.892;10.838;2023-11-21T22:52:27;8.32;;;6.78;;
63406;SDS011;49543;45.892;10.838;2023-11-21T22:54:52;9.45;;;7.18;;
63406;SDS011;49543;45.892;10.838;2023-11-21T22:57:18;11.77;;;7.28;;
63406;SDS011;49543;45.892;10.838;2023-11-21T22:59:44;9.32;;;7.18;;
63406;SDS011;49543;45.892;10.838;2023-11-21T23:02:10;10.20;;;7.85;;
63406;SDS011;49543;45.892;10.838;2023-11-21T23:04:37;11.02;;;7.57;;
63406;SDS011;49543;45.892;10.838;2023-11-21T23:07:03;9.32;;;7.57;;
63406;SDS011;49543;45.892;10.838;2023-11-21T23:09:29;11.02;;;8.07;;
